Aérodrome :
LOGIN :

S'inscrire | Disclaimer

   EN    FR    IT 

 










Légende :    VFR   VFR Marginal   IFR   IFR Intensif   IFR Très Intensif
Visi : 
Plafond : 
>= 8 km
>= 3000ft
5 à 8 km
1000 à 3000 ft
1500m à 5 km
500 à 1000 ft
800 à 1500m
200 à 500 ft
< 800m
< 200 ft
Symboles :   Orages  Brouillard  Fortes neiges  Fortes précipitations  Vent > 20 kt
SIGMETs :   Divers  Orages  Givrage  Turbulence  Onde Orograph.  Cendres Volcan.







- Altitude de l'aérodrome : 436 ft
- Code IATA : ANG
- Voir les cartes d'approche


LFBU - Angoulême Brie Champniers

DERNIER METAR :
  • 180630Z AUTO VRB03KT 0450 0350 R28/0650U FG VV/// 17/17 Q1018 TEMPO 4000 -RA BR BECMG NSC

METARs EXPIRÉS :
  • 180600Z AUTO 24003KT 210V270 0300 0250 R28/0550U FG VV/// 18/17 Q1018 TEMPO 4000 -RA BR BECMG NSC
  • 180530Z AUTO 25003KT 0350 0300 R28/0400D FG VV/// 18/17 Q1018 TEMPO 4000 -RA BR BECMG NSC
  • 180500Z AUTO 24004KT 7000 3100 VV/// 17/16 Q1018
  • 180430Z AUTO 26002KT 9999 FEW002 17/16 Q1018
  • 180400Z AUTO 24002KT 9999 3300 NSC 18/17 Q1018

TAF TAF LFBU
Valide du 18 à 06h jusqu'au 19 à 06h UTC


180500Z 1806/1906 VRB02KT CAVOK
PROB40
TEMPO 1806/1807 0400 FG BKN003
TEMPO 1807/1811 4000 -RA BR
BECMG 1812/1814 26010KT BKN025
BECMG 1816/1818 CAVOK
BECMG 1900/1902 0400 FG VV///
Pas de NOTAMs connus pour ce terrain.



MET'MAP, la Météo Aéronautique d'un coup d'oeil ! - Copyright ORBIFLY Décembre 2007 - Disclaimer

ORBIFLY MET'MAP TEAM :

Programmation & Développement : Alexandra Zaïnal
Conception & Développement : Baudouin d'Aumeries
Co-Programmation & Développement : Marc-Olivier Méhu
Soutien technique & logistique : Manuel Goepfert

Contact : metmap@orbifly.com




SOURCES & CREDITS :

   NOAA